Time;durP1;ratioP1;P1;durP2;ratioP2;P2;SDS_P1;SDS_P2;PMS_P1;PMS_P2;Temp;Humidity;BMP_temperature;BMP_pressure;BME280_temperature;BME280_humidity;BME280_pressure;Samples;Min_cycle;Max_cycle;Signal;HPM_P1;HPM_P2
2020/09/11 00:00:56;;;;;;;9.899998;7.950001;;;;;;;13.96;85.9502;95309.74;;;;
2020/09/11 00:01:56;;;;;;;10.8;9.200001;;;;;;;14.08;86.33691;95302.81;;;;
2020/09/11 00:02:57;;;;;;;10.8;9.200001;;;;;;;14.08;86.33691;95302.81;;;;
2020/09/11 00:03:57;;;;;;;10.8;9.200001;;;;;;;14.08;86.33691;95302.81;;;;
2020/09/11 00:04:58;;;;;;;10.8;9.200001;;;;;;;14.08;86.33691;95302.81;;;;
2020/09/11 00:05:58;;;;;;;10.8;9.200001;;;;;;;14.08;86.33691;95302.81;;;;
2020/09/11 00:06:59;;;;;;;10.8;9.200001;;;;;;;14.08;86.33691;95302.81;;;;
2020/09/11 00:07:59;;;;;;;10.8;9.200001;;;;;;;14.08;86.33691;95302.81;;;;
2020/09/11 00:09:00;;;;;;;10.8;9.200001;;;;;;;14.08;86.33691;95302.81;;;;
2020/09/11 00:10:01;;;;;;;10.8;9.200001;;;;;;;14.08;86.33691;95302.81;;;;
2020/09/11 00:11:01;;;;;;;10.8;9.200001;;;;;;;14.08;86.33691;95302.81;;;;
2020/09/11 00:12:02;;;;;;;10.8;9.200001;;;;;;;14.08;86.33691;95302.81;;;;
2020/09/11 00:13:02;;;;;;;9.499999;8.65;;;;;;;14.07;86.91797;95303.34;;;;
2020/09/11 00:14:03;;;;;;;9.499999;8.65;;;;;;;14.07;86.91797;95303.34;;;;
2020/09/11 00:15:03;;;;;;;9.499999;8.65;;;;;;;14.07;86.91797;95303.34;;;;
2020/09/11 00:16:04;;;;;;;9.499999;8.65;;;;;;;14.07;86.91797;95303.34;;;;
2020/09/11 00:17:05;;;;;;;9.499999;8.65;;;;;;;14.07;86.91797;95303.34;;;;
2020/09/11 00:18:05;;;;;;;9.499999;8.65;;;;;;;14.07;86.91797;95303.34;;;;
2020/09/11 00:19:06;;;;;;;9.499999;8.65;;;;;;;14.07;86.91797;95303.34;;;;
2020/09/11 00:20:06;;;;;;;9.499999;8.65;;;;;;;14.07;86.91797;95303.34;;;;
2020/09/11 00:21:07;;;;;;;9.499999;8.65;;;;;;;14.07;86.91797;95303.34;;;;
2020/09/11 00:22:07;;;;;;;9.499999;8.65;;;;;;;14.07;86.91797;95303.34;;;;
2020/09/11 00:23:08;;;;;;;9.200001;8.299999;;;;;;;14.05;87.31152;95286.49;;;;
2020/09/11 00:24:08;;;;;;;9.200001;8.299999;;;;;;;14.05;87.31152;95286.49;;;;
2020/09/11 00:25:09;;;;;;;9.200001;8.299999;;;;;;;14.05;87.31152;95286.49;;;;
2020/09/11 00:26:09;;;;;;;9.200001;8.299999;;;;;;;14.05;87.31152;95286.49;;;;
2020/09/11 00:27:10;;;;;;;9.200001;8.299999;;;;;;;14.05;87.31152;95286.49;;;;
2020/09/11 00:28:10;;;;;;;9.200001;8.299999;;;;;;;14.05;87.31152;95286.49;;;;
2020/09/11 00:29:11;;;;;;;9.200001;8.299999;;;;;;;14.05;87.31152;95286.49;;;;
2020/09/11 00:30:13;;;;;;;9.200001;8.299999;;;;;;;14.05;87.31152;95286.49;;;;
2020/09/11 00:31:14;;;;;;;9.200001;8.299999;;;;;;;14.05;87.31152;95286.49;;;;
2020/09/11 00:32:14;;;;;;;9.200001;8.299999;;;;;;;14.05;87.31152;95286.49;;;;
2020/09/11 00:33:15;;;;;;;9.200001;8.299999;;;;;;;14.05;87.31152;95286.49;;;;
2020/09/11 00:34:15;;;;;;;9.15;8.15;;;;;;;13.81;87.6377;95282.98;;;;
2020/09/11 00:35:16;;;;;;;9.15;8.15;;;;;;;13.81;87.6377;95282.98;;;;
2020/09/11 00:36:16;;;;;;;9.15;8.15;;;;;;;13.81;87.6377;95282.98;;;;
2020/09/11 00:37:17;;;;;;;9.15;8.15;;;;;;;13.81;87.6377;95282.98;;;;
2020/09/11 00:38:17;;;;;;;9.15;8.15;;;;;;;13.81;87.6377;95282.98;;;;
2020/09/11 00:39:18;;;;;;;9.15;8.15;;;;;;;13.81;87.6377;95282.98;;;;
2020/09/11 00:40:18;;;;;;;9.15;8.15;;;;;;;13.81;87.6377;95282.98;;;;
2020/09/11 00:41:19;;;;;;;9.15;8.15;;;;;;;13.81;87.6377;95282.98;;;;
2020/09/11 00:42:36;;;;;;;9.15;8.15;;;;;;;13.81;87.6377;95282.98;;;;
2020/09/11 00:43:38;;;;;;;9.15;8.15;;;;;;;13.81;87.6377;95282.98;;;;
2020/09/11 00:44:39;;;;;;;8.349999;7.55;;;;;;;13.6;88.12402;95281.94;;;;
2020/09/11 00:45:39;;;;;;;8.349999;7.55;;;;;;;13.6;88.12402;95281.94;;;;
2020/09/11 00:46:40;;;;;;;8.349999;7.55;;;;;;;13.6;88.12402;95281.94;;;;
2020/09/11 00:47:40;;;;;;;8.349999;7.55;;;;;;;13.6;88.12402;95281.94;;;;
2020/09/11 00:48:41;;;;;;;8.349999;7.55;;;;;;;13.6;88.12402;95281.94;;;;
2020/09/11 00:49:41;;;;;;;8.349999;7.55;;;;;;;13.6;88.12402;95281.94;;;;
2020/09/11 00:50:42;;;;;;;8.349999;7.55;;;;;;;13.6;88.12402;95281.94;;;;
2020/09/11 00:51:42;;;;;;;8.349999;7.55;;;;;;;13.6;88.12402;95281.94;;;;
2020/09/11 00:52:43;;;;;;;8.349999;7.55;;;;;;;13.6;88.12402;95281.94;;;;
2020/09/11 00:53:43;;;;;;;8.349999;7.55;;;;;;;13.6;88.12402;95281.94;;;;
2020/09/11 00:54:44;;;;;;;8.349999;7.55;;;;;;;13.6;88.12402;95281.94;;;;
2020/09/11 00:55:44;;;;;;;7.799999;7;;;;;;;13.36;88.62012;95277.04;;;;
2020/09/11 00:56:45;;;;;;;7.799999;7;;;;;;;13.36;88.62012;95277.04;;;;
2020/09/11 00:57:45;;;;;;;7.799999;7;;;;;;;13.36;88.62012;95277.04;;;;
2020/09/11 00:58:46;;;;;;;7.799999;7;;;;;;;13.36;88.62012;95277.04;;;;
2020/09/11 00:59:46;;;;;;;7.799999;7;;;;;;;13.36;88.62012;95277.04;;;;
2020/09/11 01:00:51;;;;;;;7.799999;7;;;;;;;13.36;88.62012;95277.04;;;;
2020/09/11 01:01:51;;;;;;;7.799999;7;;;;;;;13.36;88.62012;95277.04;;;;
2020/09/11 01:02:52;;;;;;;7.799999;7;;;;;;;13.36;88.62012;95277.04;;;;
2020/09/11 01:03:53;;;;;;;7.799999;7;;;;;;;13.36;88.62012;95277.04;;;;
2020/09/11 01:05:01;;;;;;;7.799999;7;;;;;;;13.36;88.62012;95277.04;;;;
2020/09/11 01:06:02;;;;;;;8.85;8;;;;;;;13.22;89.03223;95278.51;;;;
2020/09/11 01:07:07;;;;;;;8.85;8;;;;;;;13.22;89.03223;95278.51;;;;
2020/09/11 01:08:16;;;;;;;8.85;8;;;;;;;13.22;89.03223;95278.51;;;;
2020/09/11 01:09:28;;;;;;;8.85;8;;;;;;;13.22;89.03223;95278.51;;;;
2020/09/11 01:10:32;;;;;;;8.85;8;;;;;;;13.22;89.03223;95278.51;;;;
2020/09/11 01:11:34;;;;;;;8.85;8;;;;;;;13.22;89.03223;95278.51;;;;
2020/09/11 01:12:36;;;;;;;8.85;8;;;;;;;13.22;89.03223;95278.51;;;;
2020/09/11 01:13:42;;;;;;;8.85;8;;;;;;;13.22;89.03223;95278.51;;;;
2020/09/11 01:14:48;;;;;;;8.85;8;;;;;;;13.22;89.03223;95278.51;;;;
2020/09/11 01:15:53;;;;;;;8.85;8;;;;;;;13.22;89.03223;95278.51;;;;
2020/09/11 01:16:56;;;;;;;9.249998;8.249999;;;;;;;13.01;89.50293;95262.06;;;;
2020/09/11 01:18:03;;;;;;;9.249998;8.249999;;;;;;;13.01;89.50293;95262.06;;;;
2020/09/11 01:19:10;;;;;;;9.249998;8.249999;;;;;;;13.01;89.50293;95262.06;;;;
2020/09/11 01:20:18;;;;;;;9.249998;8.249999;;;;;;;13.01;89.50293;95262.06;;;;
2020/09/11 01:21:22;;;;;;;9.249998;8.249999;;;;;;;13.01;89.50293;95262.06;;;;
2020/09/11 01:22:23;;;;;;;9.249998;8.249999;;;;;;;13.01;89.50293;95262.06;;;;
2020/09/11 01:23:24;;;;;;;9.249998;8.249999;;;;;;;13.01;89.50293;95262.06;;;;
2020/09/11 01:24:27;;;;;;;9.249998;8.249999;;;;;;;13.01;89.50293;95262.06;;;;
2020/09/11 01:25:29;;;;;;;9.249998;8.249999;;;;;;;13.01;89.50293;95262.06;;;;
2020/09/11 01:26:32;;;;;;;9.249998;8.249999;;;;;;;13.01;89.50293;95262.06;;;;
2020/09/11 01:27:34;;;;;;;10.15;8.1;;;;;;;12.88;89.92773;95263.65;;;;
2020/09/11 01:28:35;;;;;;;10.15;8.1;;;;;;;12.88;89.92773;95263.65;;;;
2020/09/11 01:29:37;;;;;;;10.15;8.1;;;;;;;12.88;89.92773;95263.65;;;;
2020/09/11 01:30:39;;;;;;;10.15;8.1;;;;;;;12.88;89.92773;95263.65;;;;
2020/09/11 01:31:41;;;;;;;10.15;8.1;;;;;;;12.88;89.92773;95263.65;;;;
2020/09/11 01:32:45;;;;;;;10.15;8.1;;;;;;;12.88;89.92773;95263.65;;;;
2020/09/11 01:33:49;;;;;;;10.15;8.1;;;;;;;12.88;89.92773;95263.65;;;;
2020/09/11 01:34:52;;;;;;;10.15;8.1;;;;;;;12.88;89.92773;95263.65;;;;
2020/09/11 01:35:57;;;;;;;10.15;8.1;;;;;;;12.88;89.92773;95263.65;;;;
2020/09/11 01:37:05;;;;;;;10.15;8.1;;;;;;;12.88;89.92773;95263.65;;;;
2020/09/11 01:38:18;;;;;;;9.75;8.75;;;;;;;12.71;90.22559;95265.19;;;;
2020/09/11 01:39:27;;;;;;;9.75;8.75;;;;;;;12.71;90.22559;95265.19;;;;
2020/09/11 01:40:32;;;;;;;9.75;8.75;;;;;;;12.71;90.22559;95265.19;;;;
2020/09/11 01:41:36;;;;;;;9.75;8.75;;;;;;;12.71;90.22559;95265.19;;;;
2020/09/11 01:42:38;;;;;;;9.75;8.75;;;;;;;12.71;90.22559;95265.19;;;;
2020/09/11 01:43:39;;;;;;;9.75;8.75;;;;;;;12.71;90.22559;95265.19;;;;
2020/09/11 01:44:39;;;;;;;9.75;8.75;;;;;;;12.71;90.22559;95265.19;;;;
2020/09/11 01:45:42;;;;;;;9.75;8.75;;;;;;;12.71;90.22559;95265.19;;;;
2020/09/11 01:46:42;;;;;;;9.75;8.75;;;;;;;12.71;90.22559;95265.19;;;;
2020/09/11 01:47:43;;;;;;;9.75;8.75;;;;;;;12.71;90.22559;95265.19;;;;
2020/09/11 01:48:43;;;;;;;9.450001;8.500001;;;;;;;12.57;90.82715;95265.67;;;;
2020/09/11 01:49:44;;;;;;;9.450001;8.500001;;;;;;;12.57;90.82715;95265.67;;;;
2020/09/11 01:50:44;;;;;;;9.450001;8.500001;;;;;;;12.57;90.82715;95265.67;;;;
2020/09/11 01:51:45;;;;;;;9.450001;8.500001;;;;;;;12.57;90.82715;95265.67;;;;
2020/09/11 01:52:45;;;;;;;9.450001;8.500001;;;;;;;12.57;90.82715;95265.67;;;;
2020/09/11 01:53:46;;;;;;;9.450001;8.500001;;;;;;;12.57;90.82715;95265.67;;;;
2020/09/11 01:54:46;;;;;;;9.450001;8.500001;;;;;;;12.57;90.82715;95265.67;;;;
2020/09/11 01:55:47;;;;;;;9.450001;8.500001;;;;;;;12.57;90.82715;95265.67;;;;
2020/09/11 01:56:47;;;;;;;9.450001;8.500001;;;;;;;12.57;90.82715;95265.67;;;;
2020/09/11 01:57:48;;;;;;;9.450001;8.500001;;;;;;;12.57;90.82715;95265.67;;;;
2020/09/11 01:58:48;;;;;;;8.15;7.349999;;;;;;;12.55;91.09082;95265.63;;;;
2020/09/11 01:59:49;;;;;;;8.15;7.349999;;;;;;;12.55;91.09082;95265.63;;;;
2020/09/11 02:00:51;;;;;;;8.15;7.349999;;;;;;;12.55;91.09082;95265.63;;;;
2020/09/11 02:01:53;;;;;;;8.15;7.349999;;;;;;;12.55;91.09082;95265.63;;;;
2020/09/11 02:03:02;;;;;;;8.15;7.349999;;;;;;;12.55;91.09082;95265.63;;;;
2020/09/11 02:04:12;;;;;;;8.15;7.349999;;;;;;;12.55;91.09082;95265.63;;;;
2020/09/11 02:05:20;;;;;;;8.15;7.349999;;;;;;;12.55;91.09082;95265.63;;;;
2020/09/11 02:06:31;;;;;;;8.15;7.349999;;;;;;;12.55;91.09082;95265.63;;;;
2020/09/11 02:07:37;;;;;;;8.15;7.349999;;;;;;;12.55;91.09082;95265.63;;;;
2020/09/11 02:08:38;;;;;;;8.15;7.349999;;;;;;;12.55;91.09082;95265.63;;;;
2020/09/11 02:09:40;;;;;;;9.599999;8.749999;;;;;;;12.44;91.30469;95257.89;;;;
2020/09/11 02:10:40;;;;;;;9.599999;8.749999;;;;;;;12.44;91.30469;95257.89;;;;
2020/09/11 02:11:41;;;;;;;9.599999;8.749999;;;;;;;12.44;91.30469;95257.89;;;;
2020/09/11 02:12:41;;;;;;;9.599999;8.749999;;;;;;;12.44;91.30469;95257.89;;;;
2020/09/11 02:13:42;;;;;;;9.599999;8.749999;;;;;;;12.44;91.30469;95257.89;;;;
2020/09/11 02:14:43;;;;;;;9.599999;8.749999;;;;;;;12.44;91.30469;95257.89;;;;
2020/09/11 02:15:43;;;;;;;9.599999;8.749999;;;;;;;12.44;91.30469;95257.89;;;;
2020/09/11 02:16:44;;;;;;;9.599999;8.749999;;;;;;;12.44;91.30469;95257.89;;;;
2020/09/11 02:17:44;;;;;;;9.599999;8.749999;;;;;;;12.44;91.30469;95257.89;;;;
2020/09/11 02:18:45;;;;;;;9.599999;8.749999;;;;;;;12.44;91.30469;95257.89;;;;
2020/09/11 02:19:45;;;;;;;9.599999;8.749999;;;;;;;12.44;91.30469;95257.89;;;;
2020/09/11 02:20:46;;;;;;;11.25;10.15;;;;;;;12.39;91.49609;95251.05;;;;
2020/09/11 02:21:46;;;;;;;11.25;10.15;;;;;;;12.39;91.49609;95251.05;;;;
2020/09/11 02:22:47;;;;;;;11.25;10.15;;;;;;;12.39;91.49609;95251.05;;;;
2020/09/11 02:23:49;;;;;;;11.25;10.15;;;;;;;12.39;91.49609;95251.05;;;;
2020/09/11 02:24:50;;;;;;;11.25;10.15;;;;;;;12.39;91.49609;95251.05;;;;
2020/09/11 02:25:50;;;;;;;11.25;10.15;;;;;;;12.39;91.49609;95251.05;;;;
2020/09/11 02:26:51;;;;;;;11.25;10.15;;;;;;;12.39;91.49609;95251.05;;;;
2020/09/11 02:27:51;;;;;;;11.25;10.15;;;;;;;12.39;91.49609;95251.05;;;;
2020/09/11 02:28:52;;;;;;;11.25;10.15;;;;;;;12.39;91.49609;95251.05;;;;
2020/09/11 02:29:52;;;;;;;11.25;10.15;;;;;;;12.39;91.49609;95251.05;;;;
2020/09/11 02:30:53;;;;;;;11.05;10.05;;;;;;;12.26;91.78906;95245.95;;;;
2020/09/11 02:31:53;;;;;;;11.05;10.05;;;;;;;12.26;91.78906;95245.95;;;;
2020/09/11 02:32:54;;;;;;;11.05;10.05;;;;;;;12.26;91.78906;95245.95;;;;
2020/09/11 02:33:54;;;;;;;11.05;10.05;;;;;;;12.26;91.78906;95245.95;;;;
2020/09/11 02:34:55;;;;;;;11.05;10.05;;;;;;;12.26;91.78906;95245.95;;;;
2020/09/11 02:35:56;;;;;;;11.05;10.05;;;;;;;12.26;91.78906;95245.95;;;;
2020/09/11 02:36:56;;;;;;;11.05;10.05;;;;;;;12.26;91.78906;95245.95;;;;
2020/09/11 02:37:57;;;;;;;11.05;10.05;;;;;;;12.26;91.78906;95245.95;;;;
2020/09/11 02:38:57;;;;;;;11.05;10.05;;;;;;;12.26;91.78906;95245.95;;;;
2020/09/11 02:39:58;;;;;;;11.05;10.05;;;;;;;12.26;91.78906;95245.95;;;;
2020/09/11 02:40:59;;;;;;;11.05;10.05;;;;;;;12.26;91.78906;95245.95;;;;
2020/09/11 02:41:59;;;;;;;10;9.1;;;;;;;12.2;92.18164;95245.17;;;;
2020/09/11 02:43:00;;;;;;;10;9.1;;;;;;;12.2;92.18164;95245.17;;;;
2020/09/11 02:44:00;;;;;;;10;9.1;;;;;;;12.2;92.18164;95245.17;;;;
2020/09/11 02:45:01;;;;;;;10;9.1;;;;;;;12.2;92.18164;95245.17;;;;
2020/09/11 02:46:01;;;;;;;10;9.1;;;;;;;12.2;92.18164;95245.17;;;;
2020/09/11 02:47:02;;;;;;;10;9.1;;;;;;;12.2;92.18164;95245.17;;;;
2020/09/11 02:48:02;;;;;;;10;9.1;;;;;;;12.2;92.18164;95245.17;;;;
2020/09/11 02:49:03;;;;;;;10;9.1;;;;;;;12.2;92.18164;95245.17;;;;
2020/09/11 02:50:04;;;;;;;10;9.1;;;;;;;12.2;92.18164;95245.17;;;;
2020/09/11 02:51:04;;;;;;;10;9.1;;;;;;;12.2;92.18164;95245.17;;;;
2020/09/11 02:52:05;;;;;;;10;9.1;;;;;;;12.2;92.18164;95245.17;;;;
2020/09/11 02:53:05;;;;;;;10.8;9.8;;;;;;;12.09;92.44824;95253.66;;;;
2020/09/11 02:54:05;;;;;;;10.8;9.8;;;;;;;12.09;92.44824;95253.66;;;;
2020/09/11 02:55:06;;;;;;;10.8;9.8;;;;;;;12.09;92.44824;95253.66;;;;
2020/09/11 02:56:07;;;;;;;10.8;9.8;;;;;;;12.09;92.44824;95253.66;;;;
2020/09/11 02:57:07;;;;;;;10.8;9.8;;;;;;;12.09;92.44824;95253.66;;;;
2020/09/11 02:58:08;;;;;;;10.8;9.8;;;;;;;12.09;92.44824;95253.66;;;;
2020/09/11 02:59:09;;;;;;;10.8;9.8;;;;;;;12.09;92.44824;95253.66;;;;
2020/09/11 03:00:10;;;;;;;10.8;9.8;;;;;;;12.09;92.44824;95253.66;;;;
2020/09/11 03:01:11;;;;;;;10.8;9.8;;;;;;;12.09;92.44824;95253.66;;;;
2020/09/11 03:02:11;;;;;;;10.8;9.8;;;;;;;12.09;92.44824;95253.66;;;;
2020/09/11 03:03:12;;;;;;;11.25;10.1;;;;;;;12.09;92.82324;95245.95;;;;
2020/09/11 03:04:12;;;;;;;11.25;10.1;;;;;;;12.09;92.82324;95245.95;;;;
2020/09/11 03:05:13;;;;;;;11.25;10.1;;;;;;;12.09;92.82324;95245.95;;;;
2020/09/11 03:06:13;;;;;;;11.25;10.1;;;;;;;12.09;92.82324;95245.95;;;;
2020/09/11 03:07:14;;;;;;;11.25;10.1;;;;;;;12.09;92.82324;95245.95;;;;
2020/09/11 03:08:14;;;;;;;11.25;10.1;;;;;;;12.09;92.82324;95245.95;;;;
2020/09/11 03:09:15;;;;;;;11.25;10.1;;;;;;;12.09;92.82324;95245.95;;;;
2020/09/11 03:10:15;;;;;;;11.25;10.1;;;;;;;12.09;92.82324;95245.95;;;;
2020/09/11 03:11:16;;;;;;;11.25;10.1;;;;;;;12.09;92.82324;95245.95;;;;
2020/09/11 03:12:16;;;;;;;11.25;10.1;;;;;;;12.09;92.82324;95245.95;;;;
2020/09/11 03:13:17;;;;;;;11.25;10.1;;;;;;;12.09;92.82324;95245.95;;;;
2020/09/11 03:14:17;;;;;;;12.2;11;;;;;;;12.06;92.85645;95242.5;;;;
2020/09/11 03:15:18;;;;;;;12.2;11;;;;;;;12.06;92.85645;95242.5;;;;
2020/09/11 03:16:18;;;;;;;12.2;11;;;;;;;12.06;92.85645;95242.5;;;;
2020/09/11 03:17:19;;;;;;;12.2;11;;;;;;;12.06;92.85645;95242.5;;;;
2020/09/11 03:18:21;;;;;;;12.2;11;;;;;;;12.06;92.85645;95242.5;;;;
2020/09/11 03:19:22;;;;;;;12.2;11;;;;;;;12.06;92.85645;95242.5;;;;
2020/09/11 03:20:22;;;;;;;12.2;11;;;;;;;12.06;92.85645;95242.5;;;;
2020/09/11 03:21:23;;;;;;;12.2;11;;;;;;;12.06;92.85645;95242.5;;;;
2020/09/11 03:22:23;;;;;;;12.2;11;;;;;;;12.06;92.85645;95242.5;;;;
2020/09/11 03:23:24;;;;;;;12.2;11;;;;;;;12.06;92.85645;95242.5;;;;
2020/09/11 03:24:24;;;;;;;12.95;11.75;;;;;;;12.12;93.37207;95241.13;;;;
2020/09/11 03:25:25;;;;;;;12.95;11.75;;;;;;;12.12;93.37207;95241.13;;;;
2020/09/11 03:26:25;;;;;;;12.95;11.75;;;;;;;12.12;93.37207;95241.13;;;;
2020/09/11 03:27:26;;;;;;;12.95;11.75;;;;;;;12.12;93.37207;95241.13;;;;
2020/09/11 03:28:27;;;;;;;12.95;11.75;;;;;;;12.12;93.37207;95241.13;;;;
2020/09/11 03:29:27;;;;;;;12.95;11.75;;;;;;;12.12;93.37207;95241.13;;;;
2020/09/11 03:30:28;;;;;;;12.95;11.75;;;;;;;12.12;93.37207;95241.13;;;;
2020/09/11 03:31:28;;;;;;;12.95;11.75;;;;;;;12.12;93.37207;95241.13;;;;
2020/09/11 03:32:29;;;;;;;12.95;11.75;;;;;;;12.12;93.37207;95241.13;;;;
2020/09/11 03:33:29;;;;;;;12.95;11.75;;;;;;;12.12;93.37207;95241.13;;;;
2020/09/11 03:34:31;;;;;;;12.95;11.75;;;;;;;12.12;93.37207;95241.13;;;;
2020/09/11 03:35:31;;;;;;;13.2;11.9;;;;;;;12.43;93.37207;95233.76;;;;
2020/09/11 03:36:32;;;;;;;13.2;11.9;;;;;;;12.43;93.37207;95233.76;;;;
2020/09/11 03:37:32;;;;;;;13.2;11.9;;;;;;;12.43;93.37207;95233.76;;;;
2020/09/11 03:38:33;;;;;;;13.2;11.9;;;;;;;12.43;93.37207;95233.76;;;;
2020/09/11 03:39:33;;;;;;;13.2;11.9;;;;;;;12.43;93.37207;95233.76;;;;
2020/09/11 03:40:34;;;;;;;13.2;11.9;;;;;;;12.43;93.37207;95233.76;;;;
2020/09/11 03:41:34;;;;;;;13.2;11.9;;;;;;;12.43;93.37207;95233.76;;;;
2020/09/11 03:42:35;;;;;;;13.2;11.9;;;;;;;12.43;93.37207;95233.76;;;;
2020/09/11 03:43:35;;;;;;;13.2;11.9;;;;;;;12.43;93.37207;95233.76;;;;
2020/09/11 03:44:37;;;;;;;13.2;11.9;;;;;;;12.43;93.37207;95233.76;;;;
2020/09/11 03:45:38;;;;;;;16.9;12.65;;;;;;;12.66;93.22949;95230.84;;;;
2020/09/11 03:46:39;;;;;;;16.9;12.65;;;;;;;12.66;93.22949;95230.84;;;;
2020/09/11 03:47:41;;;;;;;16.9;12.65;;;;;;;12.66;93.22949;95230.84;;;;
2020/09/11 03:48:46;;;;;;;16.9;12.65;;;;;;;12.66;93.22949;95230.84;;;;
2020/09/11 03:49:51;;;;;;;16.9;12.65;;;;;;;12.66;93.22949;95230.84;;;;
2020/09/11 03:50:58;;;;;;;16.9;12.65;;;;;;;12.66;93.22949;95230.84;;;;
2020/09/11 03:52:02;;;;;;;16.9;12.65;;;;;;;12.66;93.22949;95230.84;;;;
2020/09/11 03:53:03;;;;;;;16.9;12.65;;;;;;;12.66;93.22949;95230.84;;;;
2020/09/11 03:54:05;;;;;;;16.9;12.65;;;;;;;12.66;93.22949;95230.84;;;;
2020/09/11 03:55:06;;;;;;;16.9;12.65;;;;;;;12.66;93.22949;95230.84;;;;
2020/09/11 03:56:07;;;;;;;16.9;12.65;;;;;;;12.66;93.22949;95230.84;;;;
2020/09/11 03:57:08;;;;;;;13;11.75;;;;;;;12.89;93.42969;95216.13;;;;
2020/09/11 03:58:08;;;;;;;13;11.75;;;;;;;12.89;93.42969;95216.13;;;;
2020/09/11 03:59:09;;;;;;;13;11.75;;;;;;;12.89;93.42969;95216.13;;;;
2020/09/11 04:00:09;;;;;;;13;11.75;;;;;;;12.89;93.42969;95216.13;;;;
2020/09/11 04:01:12;;;;;;;13;11.75;;;;;;;12.89;93.42969;95216.13;;;;
2020/09/11 04:02:13;;;;;;;13;11.75;;;;;;;12.89;93.42969;95216.13;;;;
2020/09/11 04:03:13;;;;;;;13;11.75;;;;;;;12.89;93.42969;95216.13;;;;
2020/09/11 04:04:14;;;;;;;13;11.75;;;;;;;12.89;93.42969;95216.13;;;;
2020/09/11 04:05:15;;;;;;;13;11.75;;;;;;;12.89;93.42969;95216.13;;;;
2020/09/11 04:06:16;;;;;;;13;11.75;;;;;;;12.89;93.42969;95216.13;;;;
2020/09/11 04:07:16;;;;;;;11.75;10.75;;;;;;;12.94;93.5166;95209.82;;;;
2020/09/11 04:08:17;;;;;;;11.75;10.75;;;;;;;12.94;93.5166;95209.82;;;;
2020/09/11 04:09:17;;;;;;;11.75;10.75;;;;;;;12.94;93.5166;95209.82;;;;
2020/09/11 04:10:20;;;;;;;11.75;10.75;;;;;;;12.94;93.5166;95209.82;;;;
2020/09/11 04:11:21;;;;;;;11.75;10.75;;;;;;;12.94;93.5166;95209.82;;;;
2020/09/11 04:12:22;;;;;;;11.75;10.75;;;;;;;12.94;93.5166;95209.82;;;;
2020/09/11 04:13:23;;;;;;;11.75;10.75;;;;;;;12.94;93.5166;95209.82;;;;
2020/09/11 04:14:23;;;;;;;11.75;10.75;;;;;;;12.94;93.5166;95209.82;;;;
2020/09/11 04:15:24;;;;;;;11.75;10.75;;;;;;;12.94;93.5166;95209.82;;;;
2020/09/11 04:16:38;;;;;;;11.75;10.75;;;;;;;12.94;93.5166;95209.82;;;;
2020/09/11 04:17:38;;;;;;;12.05;10.85;;;;;;;12.94;94.04883;95208.58;;;;
2020/09/11 04:18:39;;;;;;;12.05;10.85;;;;;;;12.94;94.04883;95208.58;;;;
2020/09/11 04:19:48;;;;;;;12.05;10.85;;;;;;;12.94;94.04883;95208.58;;;;
2020/09/11 04:20:48;;;;;;;12.05;10.85;;;;;;;12.94;94.04883;95208.58;;;;
2020/09/11 04:21:49;;;;;;;12.05;10.85;;;;;;;12.94;94.04883;95208.58;;;;
2020/09/11 04:22:50;;;;;;;12.05;10.85;;;;;;;12.94;94.04883;95208.58;;;;
2020/09/11 04:23:51;;;;;;;12.05;10.85;;;;;;;12.94;94.04883;95208.58;;;;
2020/09/11 04:24:53;;;;;;;12.05;10.85;;;;;;;12.94;94.04883;95208.58;;;;
2020/09/11 04:25:58;;;;;;;12.05;10.85;;;;;;;12.94;94.04883;95208.58;;;;
2020/09/11 04:26:59;;;;;;;12.05;10.85;;;;;;;12.94;94.04883;95208.58;;;;
2020/09/11 04:27:59;;;;;;;12.05;10.85;;;;;;;12.94;94.04883;95208.58;;;;
2020/09/11 04:29:13;;;;;;;11.4;10.05;;;;;;;12.73;94.43262;95205.22;;;;
2020/09/11 04:30:13;;;;;;;11.4;10.05;;;;;;;12.73;94.43262;95205.22;;;;
2020/09/11 04:31:14;;;;;;;11.4;10.05;;;;;;;12.73;94.43262;95205.22;;;;
2020/09/11 04:32:14;;;;;;;11.4;10.05;;;;;;;12.73;94.43262;95205.22;;;;
2020/09/11 04:33:15;;;;;;;11.4;10.05;;;;;;;12.73;94.43262;95205.22;;;;
2020/09/11 04:34:31;;;;;;;11.4;10.05;;;;;;;12.73;94.43262;95205.22;;;;
2020/09/11 04:35:31;;;;;;;11.4;10.05;;;;;;;12.73;94.43262;95205.22;;;;
2020/09/11 04:36:32;;;;;;;11.4;10.05;;;;;;;12.73;94.43262;95205.22;;;;
2020/09/11 04:37:33;;;;;;;11.4;10.05;;;;;;;12.73;94.43262;95205.22;;;;
2020/09/11 04:38:40;;;;;;;11.4;10.05;;;;;;;12.73;94.43262;95205.22;;;;
2020/09/11 04:39:40;;;;;;;11.5;10.15;;;;;;;12.57;94.94531;95206.47;;;;
2020/09/11 04:40:45;;;;;;;11.5;10.15;;;;;;;12.57;94.94531;95206.47;;;;
2020/09/11 04:41:45;;;;;;;11.5;10.15;;;;;;;12.57;94.94531;95206.47;;;;
2020/09/11 04:42:46;;;;;;;11.5;10.15;;;;;;;12.57;94.94531;95206.47;;;;
2020/09/11 04:43:49;;;;;;;11.5;10.15;;;;;;;12.57;94.94531;95206.47;;;;
2020/09/11 04:44:50;;;;;;;11.5;10.15;;;;;;;12.57;94.94531;95206.47;;;;
2020/09/11 04:45:51;;;;;;;11.5;10.15;;;;;;;12.57;94.94531;95206.47;;;;
2020/09/11 04:46:52;;;;;;;11.5;10.15;;;;;;;12.57;94.94531;95206.47;;;;
2020/09/11 04:48:00;;;;;;;11.5;10.15;;;;;;;12.57;94.94531;95206.47;;;;
2020/09/11 04:49:04;;;;;;;11.5;10.15;;;;;;;12.57;94.94531;95206.47;;;;
2020/09/11 04:50:06;;;;;;;12.95;11.75;;;;;;;12.38;95.30566;95199.82;;;;
2020/09/11 04:51:07;;;;;;;12.95;11.75;;;;;;;12.38;95.30566;95199.82;;;;
2020/09/11 04:52:09;;;;;;;12.95;11.75;;;;;;;12.38;95.30566;95199.82;;;;
2020/09/11 04:53:11;;;;;;;12.95;11.75;;;;;;;12.38;95.30566;95199.82;;;;
2020/09/11 04:54:14;;;;;;;12.95;11.75;;;;;;;12.38;95.30566;95199.82;;;;
2020/09/11 04:55:20;;;;;;;12.95;11.75;;;;;;;12.38;95.30566;95199.82;;;;
2020/09/11 04:56:22;;;;;;;12.95;11.75;;;;;;;12.38;95.30566;95199.82;;;;
2020/09/11 04:57:25;;;;;;;12.95;11.75;;;;;;;12.38;95.30566;95199.82;;;;
2020/09/11 04:58:29;;;;;;;12.95;11.75;;;;;;;12.38;95.30566;95199.82;;;;
2020/09/11 04:59:32;;;;;;;12.95;11.75;;;;;;;12.38;95.30566;95199.82;;;;
2020/09/11 05:00:42;;;;;;;12.25;11.05;;;;;;;12.3;95.60938;95207.45;;;;
2020/09/11 05:01:55;;;;;;;12.25;11.05;;;;;;;12.3;95.60938;95207.45;;;;
2020/09/11 05:03:03;;;;;;;12.25;11.05;;;;;;;12.3;95.60938;95207.45;;;;
2020/09/11 05:04:09;;;;;;;12.25;11.05;;;;;;;12.3;95.60938;95207.45;;;;
2020/09/11 05:05:18;;;;;;;12.25;11.05;;;;;;;12.3;95.60938;95207.45;;;;
2020/09/11 05:06:21;;;;;;;12.25;11.05;;;;;;;12.3;95.60938;95207.45;;;;
2020/09/11 05:07:21;;;;;;;12.25;11.05;;;;;;;12.3;95.60938;95207.45;;;;
2020/09/11 05:08:30;;;;;;;12.25;11.05;;;;;;;12.3;95.60938;95207.45;;;;
2020/09/11 05:09:42;;;;;;;12.25;11.05;;;;;;;12.3;95.60938;95207.45;;;;
2020/09/11 05:10:48;;;;;;;12.25;11.05;;;;;;;12.3;95.60938;95207.45;;;;
2020/09/11 05:11:54;;;;;;;12.05;10.95;;;;;;;12.33;95.81934;95194.34;;;;
2020/09/11 05:12:55;;;;;;;12.05;10.95;;;;;;;12.33;95.81934;95194.34;;;;
2020/09/11 05:14:02;;;;;;;12.05;10.95;;;;;;;12.33;95.81934;95194.34;;;;
2020/09/11 05:15:12;;;;;;;12.05;10.95;;;;;;;12.33;95.81934;95194.34;;;;
2020/09/11 05:16:19;;;;;;;12.05;10.95;;;;;;;12.33;95.81934;95194.34;;;;
2020/09/11 05:17:26;;;;;;;12.05;10.95;;;;;;;12.33;95.81934;95194.34;;;;
2020/09/11 05:18:29;;;;;;;12.05;10.95;;;;;;;12.33;95.81934;95194.34;;;;
2020/09/11 05:19:30;;;;;;;12.05;10.95;;;;;;;12.33;95.81934;95194.34;;;;
2020/09/11 05:20:32;;;;;;;12.05;10.95;;;;;;;12.33;95.81934;95194.34;;;;
2020/09/11 05:21:33;;;;;;;16.6;14.2;;;;;;;12.66;95.83691;95206.47;;;;
2020/09/11 05:22:51;;;;;;;16.6;14.2;;;;;;;12.66;95.83691;95206.47;;;;
2020/09/11 05:23:58;;;;;;;16.6;14.2;;;;;;;12.66;95.83691;95206.47;;;;
2020/09/11 05:25:03;;;;;;;16.6;14.2;;;;;;;12.66;95.83691;95206.47;;;;
2020/09/11 05:26:04;;;;;;;16.6;14.2;;;;;;;12.66;95.83691;95206.47;;;;
2020/09/11 05:27:05;;;;;;;16.6;14.2;;;;;;;12.66;95.83691;95206.47;;;;
2020/09/11 05:28:06;;;;;;;16.6;14.2;;;;;;;12.66;95.83691;95206.47;;;;
2020/09/11 05:29:07;;;;;;;16.6;14.2;;;;;;;12.66;95.83691;95206.47;;;;
2020/09/11 05:30:16;;;;;;;16.6;14.2;;;;;;;12.66;95.83691;95206.47;;;;
2020/09/11 05:31:18;;;;;;;16.6;14.2;;;;;;;12.66;95.83691;95206.47;;;;
2020/09/11 05:32:20;;;;;;;14.05;12.55;;;;;;;13.04;95.62012;95220.95;;;;
2020/09/11 05:33:31;;;;;;;14.05;12.55;;;;;;;13.04;95.62012;95220.95;;;;
2020/09/11 05:34:35;;;;;;;14.05;12.55;;;;;;;13.04;95.62012;95220.95;;;;
2020/09/11 05:35:46;;;;;;;14.05;12.55;;;;;;;13.04;95.62012;95220.95;;;;
2020/09/11 05:36:46;;;;;;;14.05;12.55;;;;;;;13.04;95.62012;95220.95;;;;
2020/09/11 05:37:47;;;;;;;14.05;12.55;;;;;;;13.04;95.62012;95220.95;;;;
2020/09/11 05:38:51;;;;;;;14.05;12.55;;;;;;;13.04;95.62012;95220.95;;;;
2020/09/11 05:40:05;;;;;;;14.05;12.55;;;;;;;13.04;95.62012;95220.95;;;;
2020/09/11 05:41:06;;;;;;;14.05;12.55;;;;;;;13.04;95.62012;95220.95;;;;
2020/09/11 05:42:15;;;;;;;14.05;12.55;;;;;;;13.04;95.62012;95220.95;;;;
2020/09/11 05:43:16;;;;;;;15.7;13.9;;;;;;;13.48;95.38379;95231.61;;;;